sensor_id;sensor_type;location;lat;lon;timestamp;temperature;humidity
52209;DHT22;38507;53.132;6.394;2023-06-19T00:00:30;21.30;99.90
52209;DHT22;38507;53.132;6.394;2023-06-19T00:02:56;21.30;99.90
52209;DHT22;38507;53.132;6.394;2023-06-19T00:05:21;21.30;99.90
52209;DHT22;38507;53.132;6.394;2023-06-19T00:07:49;21.30;99.90
52209;DHT22;38507;53.132;6.394;2023-06-19T00:10:14;21.30;99.90
52209;DHT22;38507;53.132;6.394;2023-06-19T00:12:40;21.30;99.90
52209;DHT22;38507;53.132;6.394;2023-06-19T00:15:06;21.30;99.90
52209;DHT22;38507;53.132;6.394;2023-06-19T00:17:34;21.30;99.90
52209;DHT22;38507;53.132;6.394;2023-06-19T00:20:04;21.30;99.90
52209;DHT22;38507;53.132;6.394;2023-06-19T00:22:31;21.30;99.90
52209;DHT22;38507;53.132;6.394;2023-06-19T00:24:56;21.30;99.90
52209;DHT22;38507;53.132;6.394;2023-06-19T00:27:22;21.30;99.90
52209;DHT22;38507;53.132;6.394;2023-06-19T00:29:52;21.30;99.90
52209;DHT22;38507;53.132;6.394;2023-06-19T00:32:18;21.20;99.90
52209;DHT22;38507;53.132;6.394;2023-06-19T00:34:43;21.20;99.90
52209;DHT22;38507;53.132;6.394;2023-06-19T00:37:09;21.30;99.90
52209;DHT22;38507;53.132;6.394;2023-06-19T00:39:35;21.20;99.90
52209;DHT22;38507;53.132;6.394;2023-06-19T00:42:01;21.20;99.90
52209;DHT22;38507;53.132;6.394;2023-06-19T00:44:26;21.20;99.90
52209;DHT22;38507;53.132;6.394;2023-06-19T00:46:57;21.20;99.90
52209;DHT22;38507;53.132;6.394;2023-06-19T00:49:25;21.20;99.90
52209;DHT22;38507;53.132;6.394;2023-06-19T00:51:51;21.20;99.90
52209;DHT22;38507;53.132;6.394;2023-06-19T00:54:18;21.20;99.90
52209;DHT22;38507;53.132;6.394;2023-06-19T00:56:44;21.20;99.90
52209;DHT22;38507;53.132;6.394;2023-06-19T00:59:18;21.10;99.90
52209;DHT22;38507;53.132;6.394;2023-06-19T01:01:44;21.20;99.90
52209;DHT22;38507;53.132;6.394;2023-06-19T01:04:10;21.20;99.90
52209;DHT22;38507;53.132;6.394;2023-06-19T01:06:55;21.10;99.90
52209;DHT22;38507;53.132;6.394;2023-06-19T01:09:29;21.20;99.90
52209;DHT22;38507;53.132;6.394;2023-06-19T01:12:04;21.20;99.90
52209;DHT22;38507;53.132;6.394;2023-06-19T01:14:39;21.10;99.90
52209;DHT22;38507;53.132;6.394;2023-06-19T01:17:07;21.10;99.90
52209;DHT22;38507;53.132;6.394;2023-06-19T01:19:33;21.20;99.90
52209;DHT22;38507;53.132;6.394;2023-06-19T01:22:02;21.10;99.90
52209;DHT22;38507;53.132;6.394;2023-06-19T01:24:27;21.20;99.90
52209;DHT22;38507;53.132;6.394;2023-06-19T01:26:53;21.10;99.90
52209;DHT22;38507;53.132;6.394;2023-06-19T01:29:18;21.10;99.90
52209;DHT22;38507;53.132;6.394;2023-06-19T01:32:06;21.10;99.90
52209;DHT22;38507;53.132;6.394;2023-06-19T01:34:36;21.10;99.90
52209;DHT22;38507;53.132;6.394;2023-06-19T01:37:03;21.10;99.90
52209;DHT22;38507;53.132;6.394;2023-06-19T01:39:32;21.10;99.90
52209;DHT22;38507;53.132;6.394;2023-06-19T01:41:58;21.10;99.90
52209;DHT22;38507;53.132;6.394;2023-06-19T01:44:24;21.10;99.90
52209;DHT22;38507;53.132;6.394;2023-06-19T01:46:51;21.10;99.90
52209;DHT22;38507;53.132;6.394;2023-06-19T01:49:17;21.10;99.90
52209;DHT22;38507;53.132;6.394;2023-06-19T01:51:43;21.00;99.90
52209;DHT22;38507;53.132;6.394;2023-06-19T01:54:09;21.10;99.90
52209;DHT22;38507;53.132;6.394;2023-06-19T01:56:35;21.00;99.90
52209;DHT22;38507;53.132;6.394;2023-06-19T01:59:01;21.00;99.90
52209;DHT22;38507;53.132;6.394;2023-06-19T02:01:27;21.10;99.90
52209;DHT22;38507;53.132;6.394;2023-06-19T02:03:52;21.00;99.90
52209;DHT22;38507;53.132;6.394;2023-06-19T02:06:18;21.00;99.90
52209;DHT22;38507;53.132;6.394;2023-06-19T02:08:44;21.00;99.90
52209;DHT22;38507;53.132;6.394;2023-06-19T02:11:09;21.00;99.90
52209;DHT22;38507;53.132;6.394;2023-06-19T02:13:35;21.00;99.90
52209;DHT22;38507;53.132;6.394;2023-06-19T02:16:01;21.00;99.90
52209;DHT22;38507;53.132;6.394;2023-06-19T02:18:26;21.00;99.90
52209;DHT22;38507;53.132;6.394;2023-06-19T02:20:52;21.00;99.90
52209;DHT22;38507;53.132;6.394;2023-06-19T02:23:17;21.00;99.90
52209;DHT22;38507;53.132;6.394;2023-06-19T02:25:43;21.10;99.90
52209;DHT22;38507;53.132;6.394;2023-06-19T02:28:09;21.00;99.70
52209;DHT22;38507;53.132;6.394;2023-06-19T02:30:34;21.00;99.60
52209;DHT22;38507;53.132;6.394;2023-06-19T02:33:00;21.00;99.50
52209;DHT22;38507;53.132;6.394;2023-06-19T02:35:26;21.00;99.30
52209;DHT22;38507;53.132;6.394;2023-06-19T02:37:52;21.00;99.20
52209;DHT22;38507;53.132;6.394;2023-06-19T02:40:18;21.00;99.10
52209;DHT22;38507;53.132;6.394;2023-06-19T02:42:44;21.00;99.00
52209;DHT22;38507;53.132;6.394;2023-06-19T02:45:09;21.00;99.00
52209;DHT22;38507;53.132;6.394;2023-06-19T02:47:35;21.00;98.90
52209;DHT22;38507;53.132;6.394;2023-06-19T02:50:02;21.00;99.00
52209;DHT22;38507;53.132;6.394;2023-06-19T02:52:29;21.00;99.00
52209;DHT22;38507;53.132;6.394;2023-06-19T02:54:55;21.00;99.00
52209;DHT22;38507;53.132;6.394;2023-06-19T02:57:20;21.00;99.10
52209;DHT22;38507;53.132;6.394;2023-06-19T02:59:46;21.00;99.10
52209;DHT22;38507;53.132;6.394;2023-06-19T03:02:12;20.90;99.10
52209;DHT22;38507;53.132;6.394;2023-06-19T03:04:39;20.90;99.10
52209;DHT22;38507;53.132;6.394;2023-06-19T03:07:06;20.90;99.00
52209;DHT22;38507;53.132;6.394;2023-06-19T03:09:31;20.90;99.00
52209;DHT22;38507;53.132;6.394;2023-06-19T03:11:57;20.90;99.00
52209;DHT22;38507;53.132;6.394;2023-06-19T03:14:22;20.90;99.00
52209;DHT22;38507;53.132;6.394;2023-06-19T03:16:48;20.80;99.00
52209;DHT22;38507;53.132;6.394;2023-06-19T03:19:13;20.80;98.90
52209;DHT22;38507;53.132;6.394;2023-06-19T03:21:39;20.80;98.90
52209;DHT22;38507;53.132;6.394;2023-06-19T03:24:05;20.80;98.80
52209;DHT22;38507;53.132;6.394;2023-06-19T03:26:31;20.80;98.90
52209;DHT22;38507;53.132;6.394;2023-06-19T03:28:56;20.70;98.80
52209;DHT22;38507;53.132;6.394;2023-06-19T03:31:22;20.70;98.80
52209;DHT22;38507;53.132;6.394;2023-06-19T03:33:48;20.70;98.80
52209;DHT22;38507;53.132;6.394;2023-06-19T03:36:14;20.70;98.80
52209;DHT22;38507;53.132;6.394;2023-06-19T03:38:39;20.60;98.80
52209;DHT22;38507;53.132;6.394;2023-06-19T03:41:05;20.60;99.00
52209;DHT22;38507;53.132;6.394;2023-06-19T03:43:31;20.60;99.00
52209;DHT22;38507;53.132;6.394;2023-06-19T03:45:56;20.60;99.10
52209;DHT22;38507;53.132;6.394;2023-06-19T03:48:22;20.70;99.20
52209;DHT22;38507;53.132;6.394;2023-06-19T03:50:48;20.70;99.40
52209;DHT22;38507;53.132;6.394;2023-06-19T03:53:13;20.70;99.30
52209;DHT22;38507;53.132;6.394;2023-06-19T03:55:39;20.70;99.40
52209;DHT22;38507;53.132;6.394;2023-06-19T03:58:05;20.70;99.50
52209;DHT22;38507;53.132;6.394;2023-06-19T04:00:31;20.70;99.60
52209;DHT22;38507;53.132;6.394;2023-06-19T04:02:57;20.70;99.90
52209;DHT22;38507;53.132;6.394;2023-06-19T04:05:23;20.70;99.90
52209;DHT22;38507;53.132;6.394;2023-06-19T04:07:48;20.70;99.90
52209;DHT22;38507;53.132;6.394;2023-06-19T04:10:14;20.70;99.90
52209;DHT22;38507;53.132;6.394;2023-06-19T04:12:40;20.70;99.90
52209;DHT22;38507;53.132;6.394;2023-06-19T04:15:06;20.70;99.90
52209;DHT22;38507;53.132;6.394;2023-06-19T04:17:32;20.70;99.90
52209;DHT22;38507;53.132;6.394;2023-06-19T04:19:58;20.70;99.90
52209;DHT22;38507;53.132;6.394;2023-06-19T04:22:23;20.70;99.90
52209;DHT22;38507;53.132;6.394;2023-06-19T04:24:49;20.70;99.90
52209;DHT22;38507;53.132;6.394;2023-06-19T04:27:15;20.70;99.90
52209;DHT22;38507;53.132;6.394;2023-06-19T04:29:41;20.70;99.90
52209;DHT22;38507;53.132;6.394;2023-06-19T04:32:06;20.60;99.90
52209;DHT22;38507;53.132;6.394;2023-06-19T04:34:38;20.70;99.90
52209;DHT22;38507;53.132;6.394;2023-06-19T04:37:04;20.70;99.90
52209;DHT22;38507;53.132;6.394;2023-06-19T04:39:30;20.70;99.90
52209;DHT22;38507;53.132;6.394;2023-06-19T04:41:55;20.70;99.90
52209;DHT22;38507;53.132;6.394;2023-06-19T04:44:21;20.70;99.90
52209;DHT22;38507;53.132;6.394;2023-06-19T04:46:47;20.70;99.90
52209;DHT22;38507;53.132;6.394;2023-06-19T04:49:13;20.70;99.90
52209;DHT22;38507;53.132;6.394;2023-06-19T04:51:40;20.70;99.90
52209;DHT22;38507;53.132;6.394;2023-06-19T04:54:06;20.70;99.90
52209;DHT22;38507;53.132;6.394;2023-06-19T04:56:31;20.60;99.90
52209;DHT22;38507;53.132;6.394;2023-06-19T04:58:57;20.60;99.90
52209;DHT22;38507;53.132;6.394;2023-06-19T05:01:26;20.70;99.90
52209;DHT22;38507;53.132;6.394;2023-06-19T05:03:55;20.60;99.90
52209;DHT22;38507;53.132;6.394;2023-06-19T05:06:24;20.60;99.90
52209;DHT22;38507;53.132;6.394;2023-06-19T05:08:50;20.60;99.90
52209;DHT22;38507;53.132;6.394;2023-06-19T05:11:16;20.70;99.90
52209;DHT22;38507;53.132;6.394;2023-06-19T05:13:42;20.70;99.90
52209;DHT22;38507;53.132;6.394;2023-06-19T05:16:07;20.70;99.90
52209;DHT22;38507;53.132;6.394;2023-06-19T05:18:33;20.70;99.90
52209;DHT22;38507;53.132;6.394;2023-06-19T05:20:59;20.70;99.90
52209;DHT22;38507;53.132;6.394;2023-06-19T05:23:24;20.70;99.90
52209;DHT22;38507;53.132;6.394;2023-06-19T05:25:50;20.80;99.90
52209;DHT22;38507;53.132;6.394;2023-06-19T05:28:16;20.80;99.90
52209;DHT22;38507;53.132;6.394;2023-06-19T05:30:41;20.90;99.90
52209;DHT22;38507;53.132;6.394;2023-06-19T05:33:07;21.00;99.90
52209;DHT22;38507;53.132;6.394;2023-06-19T05:35:33;21.00;99.90
52209;DHT22;38507;53.132;6.394;2023-06-19T05:37:58;21.00;99.90
52209;DHT22;38507;53.132;6.394;2023-06-19T05:40:24;21.10;99.90
52209;DHT22;38507;53.132;6.394;2023-06-19T05:42:49;21.10;99.90
52209;DHT22;38507;53.132;6.394;2023-06-19T05:45:15;21.10;99.90
52209;DHT22;38507;53.132;6.394;2023-06-19T05:47:41;21.10;99.90
52209;DHT22;38507;53.132;6.394;2023-06-19T05:50:06;21.10;99.90
52209;DHT22;38507;53.132;6.394;2023-06-19T05:52:33;21.10;99.90
52209;DHT22;38507;53.132;6.394;2023-06-19T05:54:58;21.10;99.90
52209;DHT22;38507;53.132;6.394;2023-06-19T05:57:24;21.10;99.90
52209;DHT22;38507;53.132;6.394;2023-06-19T05:59:50;21.10;99.90
52209;DHT22;38507;53.132;6.394;2023-06-19T06:02:17;21.00;99.90
52209;DHT22;38507;53.132;6.394;2023-06-19T06:04:44;21.00;99.90
52209;DHT22;38507;53.132;6.394;2023-06-19T06:07:10;21.10;99.90
52209;DHT22;38507;53.132;6.394;2023-06-19T06:09:35;21.00;99.90
52209;DHT22;38507;53.132;6.394;2023-06-19T06:12:01;21.00;99.90
52209;DHT22;38507;53.132;6.394;2023-06-19T06:14:27;21.00;99.90
52209;DHT22;38507;53.132;6.394;2023-06-19T06:16:53;21.00;99.90
52209;DHT22;38507;53.132;6.394;2023-06-19T06:19:20;21.10;99.90
52209;DHT22;38507;53.132;6.394;2023-06-19T06:21:48;21.10;99.90
52209;DHT22;38507;53.132;6.394;2023-06-19T06:24:14;21.00;99.90
52209;DHT22;38507;53.132;6.394;2023-06-19T06:26:39;21.00;99.90
52209;DHT22;38507;53.132;6.394;2023-06-19T06:29:05;21.10;99.90
52209;DHT22;38507;53.132;6.394;2023-06-19T06:31:30;21.10;99.90
52209;DHT22;38507;53.132;6.394;2023-06-19T06:33:56;21.00;99.90
52209;DHT22;38507;53.132;6.394;2023-06-19T06:36:22;21.10;99.90
52209;DHT22;38507;53.132;6.394;2023-06-19T06:38:47;21.00;99.90
52209;DHT22;38507;53.132;6.394;2023-06-19T06:41:13;21.10;99.90
52209;DHT22;38507;53.132;6.394;2023-06-19T06:43:40;21.10;99.90
52209;DHT22;38507;53.132;6.394;2023-06-19T06:46:08;21.00;99.90
52209;DHT22;38507;53.132;6.394;2023-06-19T06:48:33;21.00;99.90
52209;DHT22;38507;53.132;6.394;2023-06-19T06:50:59;20.90;99.90
52209;DHT22;38507;53.132;6.394;2023-06-19T06:53:27;20.90;99.90
52209;DHT22;38507;53.132;6.394;2023-06-19T06:55:58;20.90;99.90
52209;DHT22;38507;53.132;6.394;2023-06-19T06:58:25;20.80;99.90
52209;DHT22;38507;53.132;6.394;2023-06-19T07:00:50;20.70;99.90
52209;DHT22;38507;53.132;6.394;2023-06-19T07:03:17;20.70;99.90
52209;DHT22;38507;53.132;6.394;2023-06-19T07:05:43;20.70;99.90
52209;DHT22;38507;53.132;6.394;2023-06-19T07:08:09;20.70;99.90
52209;DHT22;38507;53.132;6.394;2023-06-19T07:10:35;20.60;99.90
52209;DHT22;38507;53.132;6.394;2023-06-19T07:13:00;20.60;99.90
52209;DHT22;38507;53.132;6.394;2023-06-19T07:15:26;20.60;99.90
52209;DHT22;38507;53.132;6.394;2023-06-19T07:17:52;20.50;99.90
52209;DHT22;38507;53.132;6.394;2023-06-19T07:20:18;20.50;99.90
52209;DHT22;38507;53.132;6.394;2023-06-19T07:22:43;20.50;99.90
52209;DHT22;38507;53.132;6.394;2023-06-19T07:25:11;20.50;99.90
52209;DHT22;38507;53.132;6.394;2023-06-19T07:27:37;20.50;99.90
52209;DHT22;38507;53.132;6.394;2023-06-19T07:30:03;20.40;99.90
52209;DHT22;38507;53.132;6.394;2023-06-19T07:32:28;20.40;99.90
52209;DHT22;38507;53.132;6.394;2023-06-19T07:34:54;20.40;99.90
52209;DHT22;38507;53.132;6.394;2023-06-19T07:37:20;20.40;99.90
52209;DHT22;38507;53.132;6.394;2023-06-19T07:39:50;20.50;99.90
52209;DHT22;38507;53.132;6.394;2023-06-19T07:42:17;20.50;99.90
52209;DHT22;38507;53.132;6.394;2023-06-19T07:44:44;20.40;99.90
52209;DHT22;38507;53.132;6.394;2023-06-19T07:47:09;20.50;99.90
52209;DHT22;38507;53.132;6.394;2023-06-19T07:49:35;20.50;99.90
52209;DHT22;38507;53.132;6.394;2023-06-19T07:52:02;20.50;99.90
52209;DHT22;38507;53.132;6.394;2023-06-19T07:54:28;20.60;99.90
52209;DHT22;38507;53.132;6.394;2023-06-19T07:56:53;20.60;99.90
52209;DHT22;38507;53.132;6.394;2023-06-19T07:59:19;20.70;99.90
52209;DHT22;38507;53.132;6.394;2023-06-19T08:01:45;20.70;99.90
52209;DHT22;38507;53.132;6.394;2023-06-19T08:04:11;20.70;99.90
52209;DHT22;38507;53.132;6.394;2023-06-19T08:06:37;20.50;99.90
52209;DHT22;38507;53.132;6.394;2023-06-19T08:09:03;20.40;99.90
52209;DHT22;38507;53.132;6.394;2023-06-19T08:11:29;20.40;99.90
52209;DHT22;38507;53.132;6.394;2023-06-19T08:13:54;20.40;99.90
52209;DHT22;38507;53.132;6.394;2023-06-19T08:16:20;20.40;99.90
52209;DHT22;38507;53.132;6.394;2023-06-19T08:18:46;20.40;99.90
52209;DHT22;38507;53.132;6.394;2023-06-19T08:21:12;20.40;99.90
52209;DHT22;38507;53.132;6.394;2023-06-19T08:23:38;20.50;99.90
52209;DHT22;38507;53.132;6.394;2023-06-19T08:26:05;20.40;99.90
52209;DHT22;38507;53.132;6.394;2023-06-19T08:28:34;20.40;99.90
52209;DHT22;38507;53.132;6.394;2023-06-19T08:31:00;20.30;99.90
52209;DHT22;38507;53.132;6.394;2023-06-19T08:33:26;20.30;99.90
52209;DHT22;38507;53.132;6.394;2023-06-19T08:35:52;20.30;99.90
52209;DHT22;38507;53.132;6.394;2023-06-19T08:38:18;20.20;99.90
52209;DHT22;38507;53.132;6.394;2023-06-19T08:40:45;20.20;99.90
52209;DHT22;38507;53.132;6.394;2023-06-19T08:43:11;20.20;99.90
52209;DHT22;38507;53.132;6.394;2023-06-19T08:45:37;20.10;99.90
52209;DHT22;38507;53.132;6.394;2023-06-19T08:48:03;20.10;99.90
52209;DHT22;38507;53.132;6.394;2023-06-19T08:50:32;20.10;99.90
52209;DHT22;38507;53.132;6.394;2023-06-19T08:52:58;20.10;99.90
52209;DHT22;38507;53.132;6.394;2023-06-19T08:55:24;20.10;99.90
52209;DHT22;38507;53.132;6.394;2023-06-19T08:57:51;20.20;99.90
52209;DHT22;38507;53.132;6.394;2023-06-19T09:00:25;20.20;99.90
52209;DHT22;38507;53.132;6.394;2023-06-19T09:02:52;20.20;99.90
52209;DHT22;38507;53.132;6.394;2023-06-19T09:05:19;20.20;99.90
52209;DHT22;38507;53.132;6.394;2023-06-19T09:07:57;20.20;99.90
52209;DHT22;38507;53.132;6.394;2023-06-19T09:10:24;20.20;99.90
52209;DHT22;38507;53.132;6.394;2023-06-19T09:13:03;20.20;99.90
52209;DHT22;38507;53.132;6.394;2023-06-19T09:15:31;20.30;99.90
52209;DHT22;38507;53.132;6.394;2023-06-19T09:18:15;20.30;99.90
52209;DHT22;38507;53.132;6.394;2023-06-19T09:20:42;20.40;99.90
52209;DHT22;38507;53.132;6.394;2023-06-19T09:23:11;20.40;99.90
52209;DHT22;38507;53.132;6.394;2023-06-19T09:25:47;20.50;99.90
52209;DHT22;38507;53.132;6.394;2023-06-19T09:28:20;20.50;99.90
52209;DHT22;38507;53.132;6.394;2023-06-19T09:31:01;20.60;99.90
52209;DHT22;38507;53.132;6.394;2023-06-19T09:33:28;20.50;99.90
52209;DHT22;38507;53.132;6.394;2023-06-19T09:35:55;20.50;99.90
52209;DHT22;38507;53.132;6.394;2023-06-19T09:38:24;20.60;99.90
52209;DHT22;38507;53.132;6.394;2023-06-19T09:40:52;20.60;99.90
52209;DHT22;38507;53.132;6.394;2023-06-19T09:43:33;20.60;99.90
52209;DHT22;38507;53.132;6.394;2023-06-19T09:45:59;20.60;99.90
52209;DHT22;38507;53.132;6.394;2023-06-19T09:48:29;20.60;99.90
52209;DHT22;38507;53.132;6.394;2023-06-19T09:53:36;20.60;99.90
52209;DHT22;38507;53.132;6.394;2023-06-19T09:56:02;20.50;99.90
52209;DHT22;38507;53.132;6.394;2023-06-19T09:58:29;20.40;99.90
52209;DHT22;38507;53.132;6.394;2023-06-19T10:00:55;20.40;99.90
52209;DHT22;38507;53.132;6.394;2023-06-19T10:03:21;20.40;99.90
52209;DHT22;38507;53.132;6.394;2023-06-19T10:05:59;20.40;99.90
52209;DHT22;38507;53.132;6.394;2023-06-19T10:08:39;20.30;99.90
52209;DHT22;38507;53.132;6.394;2023-06-19T10:11:05;20.30;99.90
52209;DHT22;38507;53.132;6.394;2023-06-19T10:13:35;20.20;99.90
52209;DHT22;38507;53.132;6.394;2023-06-19T10:16:04;20.30;99.90
52209;DHT22;38507;53.132;6.394;2023-06-19T10:18:32;20.20;99.90
52209;DHT22;38507;53.132;6.394;2023-06-19T10:20:58;20.20;99.90
52209;DHT22;38507;53.132;6.394;2023-06-19T10:23:25;20.20;99.90
52209;DHT22;38507;53.132;6.394;2023-06-19T10:31:05;20.50;99.90
52209;DHT22;38507;53.132;6.394;2023-06-19T10:33:35;20.60;99.90
52209;DHT22;38507;53.132;6.394;2023-06-19T10:36:21;20.60;99.90
52209;DHT22;38507;53.132;6.394;2023-06-19T10:38:48;20.60;99.90
52209;DHT22;38507;53.132;6.394;2023-06-19T10:41:25;20.50;99.90
52209;DHT22;38507;53.132;6.394;2023-06-19T10:46:23;20.60;99.90
52209;DHT22;38507;53.132;6.394;2023-06-19T10:48:54;20.60;99.90
52209;DHT22;38507;53.132;6.394;2023-06-19T10:51:26;20.70;99.90
52209;DHT22;38507;53.132;6.394;2023-06-19T10:53:54;20.70;99.90
52209;DHT22;38507;53.132;6.394;2023-06-19T10:56:21;20.70;99.90
52209;DHT22;38507;53.132;6.394;2023-06-19T10:58:47;20.70;99.90
52209;DHT22;38507;53.132;6.394;2023-06-19T11:01:13;20.90;99.90
52209;DHT22;38507;53.132;6.394;2023-06-19T11:03:39;21.10;99.90
52209;DHT22;38507;53.132;6.394;2023-06-19T11:06:04;21.20;99.90
52209;DHT22;38507;53.132;6.394;2023-06-19T11:08:30;21.40;99.90
52209;DHT22;38507;53.132;6.394;2023-06-19T11:10:56;21.40;99.90
52209;DHT22;38507;53.132;6.394;2023-06-19T11:13:21;21.40;99.90
52209;DHT22;38507;53.132;6.394;2023-06-19T11:15:48;21.40;99.90
52209;DHT22;38507;53.132;6.394;2023-06-19T11:18:18;21.40;99.90
52209;DHT22;38507;53.132;6.394;2023-06-19T11:20:49;21.50;99.90
52209;DHT22;38507;53.132;6.394;2023-06-19T11:23:37;21.60;99.90
52209;DHT22;38507;53.132;6.394;2023-06-19T11:26:06;21.80;99.90
52209;DHT22;38507;53.132;6.394;2023-06-19T11:28:32;22.00;99.90
52209;DHT22;38507;53.132;6.394;2023-06-19T11:31:02;22.20;99.90
52209;DHT22;38507;53.132;6.394;2023-06-19T11:33:28;22.30;99.90
52209;DHT22;38507;53.132;6.394;2023-06-19T11:35:55;22.30;99.90
52209;DHT22;38507;53.132;6.394;2023-06-19T11:38:25;22.30;99.90
52209;DHT22;38507;53.132;6.394;2023-06-19T11:40:52;22.30;99.90
52209;DHT22;38507;53.132;6.394;2023-06-19T11:43:31;22.30;99.90
52209;DHT22;38507;53.132;6.394;2023-06-19T11:46:04;22.40;99.90
52209;DHT22;38507;53.132;6.394;2023-06-19T11:48:30;22.50;99.90
52209;DHT22;38507;53.132;6.394;2023-06-19T11:50:56;22.50;99.90
52209;DHT22;38507;53.132;6.394;2023-06-19T11:53:23;22.60;99.90
52209;DHT22;38507;53.132;6.394;2023-06-19T11:55:50;22.50;99.90
52209;DHT22;38507;53.132;6.394;2023-06-19T11:58:17;22.50;99.90
52209;DHT22;38507;53.132;6.394;2023-06-19T12:00:43;22.90;99.90
52209;DHT22;38507;53.132;6.394;2023-06-19T12:03:09;23.10;99.90
52209;DHT22;38507;53.132;6.394;2023-06-19T12:05:36;23.10;99.90
52209;DHT22;38507;53.132;6.394;2023-06-19T12:08:02;23.10;99.90
52209;DHT22;38507;53.132;6.394;2023-06-19T12:10:30;23.30;99.90
52209;DHT22;38507;53.132;6.394;2023-06-19T12:12:55;23.40;99.90
52209;DHT22;38507;53.132;6.394;2023-06-19T12:15:21;23.40;99.90
52209;DHT22;38507;53.132;6.394;2023-06-19T12:17:47;23.30;99.90
52209;DHT22;38507;53.132;6.394;2023-06-19T12:20:13;23.20;99.90
52209;DHT22;38507;53.132;6.394;2023-06-19T12:22:39;23.10;99.90
52209;DHT22;38507;53.132;6.394;2023-06-19T12:25:06;23.20;99.90
52209;DHT22;38507;53.132;6.394;2023-06-19T12:27:31;23.30;99.90
52209;DHT22;38507;53.132;6.394;2023-06-19T12:29:57;23.30;99.90
52209;DHT22;38507;53.132;6.394;2023-06-19T12:32:23;23.30;99.90
52209;DHT22;38507;53.132;6.394;2023-06-19T12:34:50;23.30;99.90
52209;DHT22;38507;53.132;6.394;2023-06-19T12:37:19;23.50;99.90
52209;DHT22;38507;53.132;6.394;2023-06-19T12:39:49;23.60;99.90
52209;DHT22;38507;53.132;6.394;2023-06-19T12:42:15;23.60;99.90
52209;DHT22;38507;53.132;6.394;2023-06-19T12:44:41;23.70;99.90
52209;DHT22;38507;53.132;6.394;2023-06-19T12:47:07;23.60;99.90
52209;DHT22;38507;53.132;6.394;2023-06-19T12:49:33;23.90;99.90
52209;DHT22;38507;53.132;6.394;2023-06-19T12:51:59;24.10;99.90
52209;DHT22;38507;53.132;6.394;2023-06-19T12:54:25;24.30;99.90
52209;DHT22;38507;53.132;6.394;2023-06-19T12:56:51;24.30;99.90
52209;DHT22;38507;53.132;6.394;2023-06-19T12:59:17;24.40;99.90
52209;DHT22;38507;53.132;6.394;2023-06-19T13:01:43;24.30;99.90
52209;DHT22;38507;53.132;6.394;2023-06-19T13:04:09;24.30;99.90
52209;DHT22;38507;53.132;6.394;2023-06-19T13:06:36;24.50;99.90
52209;DHT22;38507;53.132;6.394;2023-06-19T13:09:02;24.50;99.90
52209;DHT22;38507;53.132;6.394;2023-06-19T13:11:28;24.40;99.90
52209;DHT22;38507;53.132;6.394;2023-06-19T13:13:53;24.40;99.90
52209;DHT22;38507;53.132;6.394;2023-06-19T13:16:19;24.30;99.90
52209;DHT22;38507;53.132;6.394;2023-06-19T13:18:45;24.30;99.90
52209;DHT22;38507;53.132;6.394;2023-06-19T13:21:11;24.40;99.90
52209;DHT22;38507;53.132;6.394;2023-06-19T13:23:37;24.60;99.90
52209;DHT22;38507;53.132;6.394;2023-06-19T13:26:04;24.60;99.90
52209;DHT22;38507;53.132;6.394;2023-06-19T13:28:30;24.70;99.90
52209;DHT22;38507;53.132;6.394;2023-06-19T13:30:56;24.80;99.90
52209;DHT22;38507;53.132;6.394;2023-06-19T13:33:21;25.00;99.90
52209;DHT22;38507;53.132;6.394;2023-06-19T13:35:47;25.10;99.90
52209;DHT22;38507;53.132;6.394;2023-06-19T13:38:13;24.90;99.90
52209;DHT22;38507;53.132;6.394;2023-06-19T13:40:38;25.00;99.90
52209;DHT22;38507;53.132;6.394;2023-06-19T13:43:04;24.90;99.90
52209;DHT22;38507;53.132;6.394;2023-06-19T13:45:31;25.10;99.90
52209;DHT22;38507;53.132;6.394;2023-06-19T13:47:57;25.40;99.90
52209;DHT22;38507;53.132;6.394;2023-06-19T13:50:23;25.50;99.90
52209;DHT22;38507;53.132;6.394;2023-06-19T13:52:49;25.50;99.90
52209;DHT22;38507;53.132;6.394;2023-06-19T13:55:15;25.70;99.90
52209;DHT22;38507;53.132;6.394;2023-06-19T13:57:42;25.60;99.40
52209;DHT22;38507;53.132;6.394;2023-06-19T14:00:09;25.60;99.90
52209;DHT22;38507;53.132;6.394;2023-06-19T14:02:36;25.80;99.90
52209;DHT22;38507;53.132;6.394;2023-06-19T14:05:05;25.90;99.70
52209;DHT22;38507;53.132;6.394;2023-06-19T14:07:31;25.80;99.60
52209;DHT22;38507;53.132;6.394;2023-06-19T14:09:57;25.80;99.60
52209;DHT22;38507;53.132;6.394;2023-06-19T14:12:23;25.90;99.50
52209;DHT22;38507;53.132;6.394;2023-06-19T14:14:48;25.70;98.20
52209;DHT22;38507;53.132;6.394;2023-06-19T14:17:14;25.80;98.60
52209;DHT22;38507;53.132;6.394;2023-06-19T14:19:40;26.00;98.80
52209;DHT22;38507;53.132;6.394;2023-06-19T14:22:05;26.20;99.00
52209;DHT22;38507;53.132;6.394;2023-06-19T14:24:31;26.10;97.80
52209;DHT22;38507;53.132;6.394;2023-06-19T14:26:57;26.20;98.70
52209;DHT22;38507;53.132;6.394;2023-06-19T14:29:22;26.20;98.80
52209;DHT22;38507;53.132;6.394;2023-06-19T14:31:51;26.00;98.40
52209;DHT22;38507;53.132;6.394;2023-06-19T14:34:18;25.90;98.40
52209;DHT22;38507;53.132;6.394;2023-06-19T14:36:43;26.20;98.60
52209;DHT22;38507;53.132;6.394;2023-06-19T14:39:09;26.20;98.20
52209;DHT22;38507;53.132;6.394;2023-06-19T14:41:37;26.20;97.80
52209;DHT22;38507;53.132;6.394;2023-06-19T14:44:03;26.20;97.30
52209;DHT22;38507;53.132;6.394;2023-06-19T14:46:30;25.90;97.20
52209;DHT22;38507;53.132;6.394;2023-06-19T14:48:56;26.20;97.70
52209;DHT22;38507;53.132;6.394;2023-06-19T14:51:24;26.30;97.80
52209;DHT22;38507;53.132;6.394;2023-06-19T14:53:50;26.40;96.70
52209;DHT22;38507;53.132;6.394;2023-06-19T14:56:16;26.50;96.60
52209;DHT22;38507;53.132;6.394;2023-06-19T14:58:42;26.40;96.20
52209;DHT22;38507;53.132;6.394;2023-06-19T15:01:08;26.50;96.80
52209;DHT22;38507;53.132;6.394;2023-06-19T15:03:34;26.60;96.80
52209;DHT22;38507;53.132;6.394;2023-06-19T15:06:00;26.60;96.50
52209;DHT22;38507;53.132;6.394;2023-06-19T15:08:26;26.70;96.60
52209;DHT22;38507;53.132;6.394;2023-06-19T15:10:51;26.80;95.80
52209;DHT22;38507;53.132;6.394;2023-06-19T15:13:17;26.80;95.80
52209;DHT22;38507;53.132;6.394;2023-06-19T15:15:44;26.80;95.10
52209;DHT22;38507;53.132;6.394;2023-06-19T15:18:10;26.70;94.90
52209;DHT22;38507;53.132;6.394;2023-06-19T15:20:36;26.50;95.50
52209;DHT22;38507;53.132;6.394;2023-06-19T15:23:07;26.80;95.40
52209;DHT22;38507;53.132;6.394;2023-06-19T15:25:32;26.90;95.60
52209;DHT22;38507;53.132;6.394;2023-06-19T15:27:58;27.00;95.50
52209;DHT22;38507;53.132;6.394;2023-06-19T15:30:24;27.00;95.30
52209;DHT22;38507;53.132;6.394;2023-06-19T15:32:49;27.10;95.40
52209;DHT22;38507;53.132;6.394;2023-06-19T15:35:15;27.20;95.70
52209;DHT22;38507;53.132;6.394;2023-06-19T15:37:41;26.90;94.80